RYR63FM LEMD-GCLP
Flight info
| Callsign | RYR63FM |
|---|---|
| Flight time | 2h 34m |
| Altitude | 33000 |
| Route | VTB DCT INPAN DCT CRISA DCT HIJ DCT SVL DCT CLANA/N0446F350 DCT KORNO UN857 TERTO |
| Aircraft | B738/M-SDE2E3FGHIRWXY/LB1 |
Departure
| Time | 2026-05-04 15:40 |
|---|---|
| Airport | Adolfo Suárez Madrid–Barajas Airport (LEMD) |
Arrival
| Time | 2026-05-04 18:14 |
|---|---|
| Airport | Gran Canaria Airport (GCLP) |
| Time | Latitude | Longitude | Altitude | Speed | Heading |
|---|---|---|---|---|---|
| 2026-05-04 15:18 | 40.46567 | -3.56824 | 1972 ft | 0 kts | 263° |
| 2026-05-04 15:30 | 40.46568 | -3.56821 | 1972 ft | 2 kts | 263° |
| 2026-05-04 15:31 | 40.46570 | -3.56764 | 1977 ft | 4 kts | 275° |
| 2026-05-04 15:31 | 40.46565 | -3.56730 | 1977 ft | 4 kts | 300° |
| 2026-05-04 15:32 | 40.46550 | -3.56713 | 1973 ft | 0 kts | 3° |
| 2026-05-04 15:34 | 40.46568 | -3.56711 | 1975 ft | 5 kts | 5° |
| 2026-05-04 15:34 | 40.46625 | -3.56708 | 1974 ft | 11 kts | 3° |
| 2026-05-04 15:34 | 40.46804 | -3.56624 | 1973 ft | 17 kts | 93° |
| 2026-05-04 15:35 | 40.46994 | -3.56451 | 1979 ft | 24 kts | 357° |
| 2026-05-04 15:35 | 40.47162 | -3.56523 | 1979 ft | 27 kts | 327° |
| 2026-05-04 15:35 | 40.47310 | -3.56672 | 1985 ft | 26 kts | 323° |
| 2026-05-04 15:36 | 40.47580 | -3.56945 | 1993 ft | 23 kts | 322° |
| 2026-05-04 15:36 | 40.47705 | -3.57072 | 1996 ft | 23 kts | 323° |
| 2026-05-04 15:36 | 40.47832 | -3.57204 | 2001 ft | 24 kts | 323° |
| 2026-05-04 15:37 | 40.47966 | -3.57339 | 2001 ft | 25 kts | 321° |
| 2026-05-04 15:37 | 40.48111 | -3.57487 | 2000 ft | 28 kts | 322° |
| 2026-05-04 15:37 | 40.48260 | -3.57639 | 1996 ft | 23 kts | 322° |
| 2026-05-04 15:37 | 40.48346 | -3.57662 | 1995 ft | 3 kts | 43° |
| 2026-05-04 15:38 | 40.48348 | -3.57658 | 1995 ft | 0 kts | 49° |
| 2026-05-04 15:38 | 40.48349 | -3.57657 | 1995 ft | 1 kts | 51° |
| 2026-05-04 15:38 | 40.48356 | -3.57618 | 1996 ft | 8 kts | 93° |
| 2026-05-04 15:39 | 40.48331 | -3.57528 | 1997 ft | 14 kts | 111° |
| 2026-05-04 15:39 | 40.48247 | -3.57354 | 2002 ft | 43 kts | 139° |
| 2026-05-04 15:39 | 40.47052 | -3.56160 | 1982 ft | 166 kts | 148° |
| 2026-05-04 15:40 | 40.46054 | -3.55148 | 2389 ft | 183 kts | 147° |
| 2026-05-04 15:40 | 40.45058 | -3.54159 | 3271 ft | 182 kts | 148° |
| 2026-05-04 15:40 | 40.43991 | -3.53128 | 3775 ft | 199 kts | 144° |
| 2026-05-04 15:40 | 40.42893 | -3.52024 | 4524 ft | 198 kts | 144° |
| 2026-05-04 15:41 | 40.41805 | -3.50909 | 5233 ft | 200 kts | 147° |
| 2026-05-04 15:41 | 40.40719 | -3.49800 | 6011 ft | 197 kts | 147° |
| 2026-05-04 15:41 | 40.39638 | -3.48699 | 6713 ft | 196 kts | 148° |
| 2026-05-04 15:41 | 40.38550 | -3.47597 | 7310 ft | 203 kts | 148° |
| 2026-05-04 15:42 | 40.37369 | -3.46406 | 7506 ft | 224 kts | 147° |
| 2026-05-04 15:42 | 40.36081 | -3.45101 | 7693 ft | 244 kts | 145° |
| 2026-05-04 15:42 | 40.34707 | -3.43701 | 8042 ft | 255 kts | 146° |
| 2026-05-04 15:42 | 40.33307 | -3.42273 | 8734 ft | 254 kts | 146° |
| 2026-05-04 15:43 | 40.31901 | -3.40841 | 9409 ft | 258 kts | 146° |
| 2026-05-04 15:43 | 40.30487 | -3.39402 | 10173 ft | 258 kts | 146° |
| 2026-05-04 15:43 | 40.28971 | -3.38168 | 10758 ft | 257 kts | 168° |
| 2026-05-04 15:43 | 40.27207 | -3.38062 | 11168 ft | 261 kts | 197° |
| 2026-05-04 15:44 | 40.25489 | -3.38931 | 11594 ft | 269 kts | 208° |
| 2026-05-04 15:44 | 40.23776 | -3.39958 | 12298 ft | 273 kts | 208° |
| 2026-05-04 15:44 | 40.22032 | -3.41005 | 12960 ft | 278 kts | 208° |
| 2026-05-04 15:44 | 40.20257 | -3.42058 | 13678 ft | 281 kts | 207° |
| 2026-05-04 15:45 | 40.18335 | -3.42710 | 14207 ft | 296 kts | 191° |
| 2026-05-04 15:45 | 40.16200 | -3.42934 | 14373 ft | 319 kts | 188° |
| 2026-05-04 15:45 | 40.13913 | -3.43119 | 14528 ft | 340 kts | 187° |
| 2026-05-04 15:45 | 40.11485 | -3.43310 | 14672 ft | 359 kts | 187° |
| 2026-05-04 15:46 | 40.08922 | -3.43522 | 14800 ft | 378 kts | 187° |
| 2026-05-04 15:46 | 40.06243 | -3.43756 | 14913 ft | 395 kts | 187° |
| 2026-05-04 15:46 | 40.03447 | -3.44010 | 15143 ft | 407 kts | 187° |
| 2026-05-04 15:46 | 40.00595 | -3.44273 | 15609 ft | 412 kts | 187° |
| 2026-05-04 15:47 | 39.97733 | -3.44540 | 16179 ft | 414 kts | 187° |
| 2026-05-04 15:47 | 39.94856 | -3.44811 | 16768 ft | 415 kts | 188° |
| 2026-05-04 15:47 | 39.91968 | -3.45085 | 17289 ft | 418 kts | 188° |
| 2026-05-04 15:47 | 39.89054 | -3.45362 | 17792 ft | 422 kts | 188° |
| 2026-05-04 15:48 | 39.86121 | -3.45641 | 18295 ft | 425 kts | 188° |
| 2026-05-04 15:48 | 39.83207 | -3.45917 | 18735 ft | 427 kts | 188° |
| 2026-05-04 15:48 | 39.77555 | -3.47913 | 19617 ft | 421 kts | 212° |
| 2026-05-04 15:49 | 39.75166 | -3.50086 | 20054 ft | 419 kts | 224° |
| 2026-05-04 15:49 | 39.73111 | -3.52770 | 20516 ft | 419 kts | 228° |
| 2026-05-04 15:49 | 39.71090 | -3.55503 | 20941 ft | 421 kts | 228° |
| 2026-05-04 15:49 | 39.69043 | -3.58255 | 21322 ft | 425 kts | 228° |
| 2026-05-04 15:50 | 39.66973 | -3.61009 | 21725 ft | 427 kts | 228° |
| 2026-05-04 15:50 | 39.64887 | -3.63759 | 22140 ft | 429 kts | 228° |
| 2026-05-04 15:50 | 39.62785 | -3.66515 | 22524 ft | 431 kts | 228° |
| 2026-05-04 15:50 | 39.60669 | -3.69284 | 22913 ft | 433 kts | 228° |
| 2026-05-04 15:51 | 39.58544 | -3.72060 | 23279 ft | 435 kts | 228° |
| 2026-05-04 15:51 | 39.56404 | -3.74854 | 23601 ft | 438 kts | 228° |
| 2026-05-04 15:51 | 39.54258 | -3.77657 | 23937 ft | 438 kts | 228° |
| 2026-05-04 15:51 | 39.52110 | -3.80461 | 24276 ft | 439 kts | 228° |
| 2026-05-04 15:52 | 39.49960 | -3.83269 | 24642 ft | 438 kts | 228° |
| 2026-05-04 15:52 | 39.47814 | -3.86070 | 24965 ft | 439 kts | 228° |
| 2026-05-04 15:52 | 39.45660 | -3.88879 | 25216 ft | 441 kts | 228° |
| 2026-05-04 15:52 | 39.43495 | -3.91700 | 25486 ft | 442 kts | 228° |
| 2026-05-04 15:53 | 39.41323 | -3.94527 | 25768 ft | 443 kts | 228° |
| 2026-05-04 15:53 | 39.39150 | -3.97352 | 26027 ft | 444 kts | 228° |
| 2026-05-04 15:53 | 39.36979 | -4.00172 | 26343 ft | 442 kts | 228° |
| 2026-05-04 15:53 | 39.34811 | -4.02984 | 26738 ft | 440 kts | 228° |
| 2026-05-04 15:54 | 39.32658 | -4.05774 | 27122 ft | 437 kts | 228° |
| 2026-05-04 15:54 | 39.30512 | -4.08553 | 27485 ft | 436 kts | 228° |
| 2026-05-04 15:54 | 39.28404 | -4.11282 | 27812 ft | 434 kts | 228° |
| 2026-05-04 15:54 | 39.26269 | -4.14040 | 28147 ft | 432 kts | 229° |
| 2026-05-04 15:55 | 39.24151 | -4.16776 | 28539 ft | 430 kts | 229° |
| 2026-05-04 15:55 | 39.22038 | -4.19505 | 28910 ft | 429 kts | 229° |
| 2026-05-04 15:55 | 39.19931 | -4.22222 | 29268 ft | 428 kts | 229° |
| 2026-05-04 15:55 | 39.17831 | -4.24929 | 29643 ft | 426 kts | 229° |
| 2026-05-04 15:56 | 39.15740 | -4.27620 | 30027 ft | 424 kts | 229° |
| 2026-05-04 15:56 | 39.13658 | -4.30298 | 30323 ft | 423 kts | 229° |
| 2026-05-04 15:56 | 39.11576 | -4.32973 | 30559 ft | 423 kts | 229° |
| 2026-05-04 15:56 | 39.09493 | -4.35648 | 30802 ft | 423 kts | 229° |
| 2026-05-04 15:57 | 39.07415 | -4.38313 | 31108 ft | 421 kts | 229° |
| 2026-05-04 15:57 | 39.05344 | -4.40968 | 31365 ft | 421 kts | 229° |
| 2026-05-04 15:57 | 39.03270 | -4.43624 | 31564 ft | 420 kts | 229° |
| 2026-05-04 15:57 | 39.01203 | -4.46269 | 31878 ft | 418 kts | 229° |
| 2026-05-04 15:58 | 38.99144 | -4.48903 | 32166 ft | 417 kts | 229° |
| 2026-05-04 15:58 | 38.97089 | -4.51528 | 32361 ft | 417 kts | 229° |
| 2026-05-04 15:58 | 38.95028 | -4.54158 | 32579 ft | 417 kts | 229° |
| 2026-05-04 15:58 | 38.92974 | -4.56776 | 32866 ft | 416 kts | 229° |
| 2026-05-04 15:59 | 38.90923 | -4.59384 | 33075 ft | 417 kts | 229° |
| 2026-05-04 15:59 | 38.88854 | -4.62013 | 33168 ft | 420 kts | 229° |
| 2026-05-04 15:59 | 38.86777 | -4.64651 | 33404 ft | 419 kts | 229° |
| 2026-05-04 15:59 | 38.84712 | -4.67270 | 33722 ft | 417 kts | 229° |
| 2026-05-04 16:00 | 38.82655 | -4.69876 | 34013 ft | 415 kts | 229° |
| 2026-05-04 16:00 | 38.80602 | -4.72477 | 34203 ft | 415 kts | 229° |
| 2026-05-04 16:00 | 38.78551 | -4.75074 | 34375 ft | 414 kts | 229° |
| 2026-05-04 16:00 | 38.76504 | -4.77662 | 34617 ft | 413 kts | 229° |
| 2026-05-04 16:01 | 38.74461 | -4.80245 | 34794 ft | 413 kts | 229° |
| 2026-05-04 16:01 | 38.72417 | -4.82827 | 34935 ft | 413 kts | 229° |
| 2026-05-04 16:01 | 38.68303 | -4.88019 | 34982 ft | 416 kts | 229° |
| 2026-05-04 16:02 | 38.64191 | -4.93195 | 34990 ft | 416 kts | 228° |
| 2026-05-04 16:03 | 38.57947 | -5.01044 | 34990 ft | 422 kts | 229° |
| 2026-05-04 16:03 | 38.53749 | -5.06306 | 34950 ft | 421 kts | 229° |
| 2026-05-04 16:04 | 38.49186 | -5.10993 | 34982 ft | 426 kts | 217° |
| 2026-05-04 16:04 | 38.41126 | -5.16060 | 34992 ft | 432 kts | 212° |
| 2026-05-04 16:05 | 38.35745 | -5.19362 | 34993 ft | 432 kts | 212° |
| 2026-05-04 16:06 | 38.27590 | -5.24400 | 34995 ft | 432 kts | 212° |
| 2026-05-04 16:07 | 38.16825 | -5.31052 | 34998 ft | 431 kts | 212° |
| 2026-05-04 16:08 | 38.06015 | -5.37708 | 34965 ft | 432 kts | 212° |
| 2026-05-04 16:09 | 37.92483 | -5.46009 | 34997 ft | 433 kts | 212° |
| 2026-05-04 16:10 | 37.81633 | -5.52640 | 34975 ft | 433 kts | 212° |
| 2026-05-04 16:11 | 37.70798 | -5.59238 | 34995 ft | 431 kts | 212° |
| 2026-05-04 16:12 | 37.54611 | -5.69061 | 34991 ft | 429 kts | 212° |
| 2026-05-04 16:13 | 37.43852 | -5.75615 | 34994 ft | 428 kts | 216° |
| 2026-05-04 16:14 | 37.35440 | -5.83985 | 34997 ft | 421 kts | 226° |
| 2026-05-04 16:16 | 37.23541 | -5.96676 | 35014 ft | 422 kts | 225° |
| 2026-05-04 16:17 | 37.13061 | -6.07763 | 35019 ft | 421 kts | 225° |
| 2026-05-04 16:18 | 37.04116 | -6.17194 | 35044 ft | 421 kts | 226° |
| 2026-05-04 16:19 | 36.92912 | -6.28966 | 35044 ft | 421 kts | 226° |
| 2026-05-04 16:20 | 36.81683 | -6.40716 | 35022 ft | 421 kts | 226° |
| 2026-05-04 16:22 | 36.70524 | -6.52348 | 35055 ft | 419 kts | 226° |
| 2026-05-04 16:23 | 36.57050 | -6.66335 | 35046 ft | 421 kts | 225° |
| 2026-05-04 16:25 | 36.43652 | -6.80167 | 35055 ft | 415 kts | 226° |
| 2026-05-04 16:26 | 36.28019 | -6.96226 | 35045 ft | 417 kts | 226° |
| 2026-05-04 16:28 | 36.16862 | -7.07633 | 35061 ft | 416 kts | 226° |
| 2026-05-04 16:29 | 36.01227 | -7.23550 | 35040 ft | 416 kts | 226° |
| 2026-05-04 16:31 | 35.90008 | -7.34919 | 35075 ft | 418 kts | 226° |
| 2026-05-04 16:32 | 35.76445 | -7.48548 | 35078 ft | 420 kts | 225° |
| 2026-05-04 16:33 | 35.67352 | -7.57594 | 35077 ft | 420 kts | 225° |
| 2026-05-04 16:34 | 35.60525 | -7.64377 | 35081 ft | 421 kts | 225° |
| 2026-05-04 16:35 | 35.46867 | -7.77900 | 35077 ft | 421 kts | 225° |
| 2026-05-04 16:36 | 35.40023 | -7.84662 | 35088 ft | 421 kts | 225° |
| 2026-05-04 16:37 | 35.33217 | -7.91462 | 35088 ft | 421 kts | 225° |
| 2026-05-04 16:38 | 35.24139 | -8.00523 | 35087 ft | 421 kts | 225° |
| 2026-05-04 16:39 | 35.12795 | -8.11796 | 35082 ft | 420 kts | 225° |
| 2026-05-04 16:40 | 35.03721 | -8.20783 | 35095 ft | 420 kts | 225° |
| 2026-05-04 16:41 | 34.92373 | -8.31985 | 35077 ft | 419 kts | 224° |
| 2026-05-04 16:43 | 34.81046 | -8.43126 | 35086 ft | 418 kts | 224° |
| 2026-05-04 16:43 | 34.74274 | -8.49768 | 35098 ft | 419 kts | 224° |
| 2026-05-04 16:45 | 34.60655 | -8.63080 | 35096 ft | 418 kts | 224° |
| 2026-05-04 16:46 | 34.49305 | -8.74134 | 35089 ft | 419 kts | 224° |
| 2026-05-04 16:47 | 34.40198 | -8.82950 | 35079 ft | 420 kts | 223° |
| 2026-05-04 16:48 | 34.31043 | -8.91735 | 35100 ft | 420 kts | 223° |
| 2026-05-04 16:49 | 34.21873 | -9.00519 | 35092 ft | 421 kts | 223° |
| 2026-05-04 16:50 | 34.12686 | -9.09296 | 35073 ft | 421 kts | 223° |
| 2026-05-04 16:51 | 34.05772 | -9.15886 | 35101 ft | 423 kts | 223° |
| 2026-05-04 16:52 | 33.96508 | -9.24692 | 35099 ft | 425 kts | 223° |
| 2026-05-04 16:53 | 33.89568 | -9.31273 | 35100 ft | 425 kts | 223° |
| 2026-05-04 16:54 | 33.80224 | -9.40112 | 35094 ft | 427 kts | 223° |
| 2026-05-04 16:55 | 33.66193 | -9.53336 | 35097 ft | 428 kts | 222° |
| 2026-05-04 16:56 | 33.54493 | -9.64321 | 35083 ft | 429 kts | 222° |
| 2026-05-04 16:57 | 33.47447 | -9.70918 | 35085 ft | 429 kts | 222° |
| 2026-05-04 16:58 | 33.38030 | -9.79712 | 35085 ft | 429 kts | 222° |
| 2026-05-04 17:00 | 33.23890 | -9.92870 | 35082 ft | 429 kts | 222° |
| 2026-05-04 17:01 | 33.12127 | -10.03776 | 35090 ft | 428 kts | 222° |
| 2026-05-04 17:02 | 33.03506 | -10.11747 | 35090 ft | 428 kts | 221° |
| 2026-05-04 17:03 | 32.96430 | -10.18267 | 35090 ft | 429 kts | 221° |
| 2026-05-04 17:03 | 32.89353 | -10.24774 | 35087 ft | 428 kts | 221° |
| 2026-05-04 17:04 | 32.79917 | -10.33432 | 35090 ft | 428 kts | 221° |
| 2026-05-04 17:05 | 32.70477 | -10.42072 | 35074 ft | 427 kts | 222° |
| 2026-05-04 17:06 | 32.63434 | -10.48501 | 35086 ft | 425 kts | 222° |
| 2026-05-04 17:07 | 32.57188 | -10.54193 | 35087 ft | 425 kts | 222° |
| 2026-05-04 17:07 | 32.51695 | -10.59190 | 35091 ft | 425 kts | 222° |
| 2026-05-04 17:08 | 32.44653 | -10.65585 | 35084 ft | 425 kts | 222° |
| 2026-05-04 17:09 | 32.39965 | -10.69833 | 35070 ft | 422 kts | 223° |
| 2026-05-04 17:09 | 32.35309 | -10.74047 | 35087 ft | 421 kts | 223° |
| 2026-05-04 17:10 | 32.23666 | -10.84566 | 35084 ft | 422 kts | 223° |
| 2026-05-04 17:11 | 32.19032 | -10.88741 | 35087 ft | 422 kts | 223° |
| 2026-05-04 17:12 | 32.12040 | -10.95030 | 35075 ft | 419 kts | 223° |
| 2026-05-04 17:13 | 32.00902 | -11.05026 | 35084 ft | 416 kts | 223° |
| 2026-05-04 17:14 | 31.91675 | -11.13284 | 35078 ft | 417 kts | 223° |
| 2026-05-04 17:15 | 31.84750 | -11.19467 | 35063 ft | 417 kts | 223° |
| 2026-05-04 17:16 | 31.75589 | -11.27629 | 35081 ft | 412 kts | 223° |
| 2026-05-04 17:17 | 31.66469 | -11.35751 | 35079 ft | 413 kts | 223° |
| 2026-05-04 17:18 | 31.57324 | -11.43881 | 35081 ft | 412 kts | 223° |
| 2026-05-04 17:19 | 31.48222 | -11.51953 | 35081 ft | 409 kts | 223° |
| 2026-05-04 17:20 | 31.39132 | -11.59996 | 35074 ft | 409 kts | 223° |
| 2026-05-04 17:20 | 31.32309 | -11.66019 | 35079 ft | 409 kts | 223° |
| 2026-05-04 17:21 | 31.23221 | -11.74022 | 35069 ft | 407 kts | 223° |
| 2026-05-04 17:22 | 31.18703 | -11.77994 | 35076 ft | 406 kts | 223° |
| 2026-05-04 17:23 | 31.09666 | -11.85927 | 35076 ft | 406 kts | 223° |
| 2026-05-04 17:24 | 31.02883 | -11.91866 | 35071 ft | 406 kts | 223° |
| 2026-05-04 17:25 | 30.93844 | -11.99765 | 35062 ft | 406 kts | 223° |
| 2026-05-04 17:26 | 30.84829 | -12.07624 | 35080 ft | 404 kts | 223° |
| 2026-05-04 17:27 | 30.73578 | -12.17406 | 35073 ft | 403 kts | 223° |
| 2026-05-04 17:28 | 30.64584 | -12.25205 | 35063 ft | 402 kts | 223° |
| 2026-05-04 17:29 | 30.51466 | -12.37107 | 35075 ft | 398 kts | 226° |
| 2026-05-04 17:31 | 30.40883 | -12.47459 | 35078 ft | 398 kts | 225° |
| 2026-05-04 17:32 | 30.30254 | -12.57727 | 35066 ft | 397 kts | 225° |
| 2026-05-04 17:33 | 30.21760 | -12.65906 | 35075 ft | 397 kts | 225° |
| 2026-05-04 17:34 | 30.13264 | -12.74068 | 35077 ft | 397 kts | 225° |
| 2026-05-04 17:35 | 30.02638 | -12.84250 | 35077 ft | 397 kts | 225° |
| 2026-05-04 17:36 | 29.98392 | -12.88309 | 35076 ft | 396 kts | 225° |
| 2026-05-04 17:36 | 29.94145 | -12.92366 | 35075 ft | 396 kts | 225° |
| 2026-05-04 17:37 | 29.89899 | -12.96417 | 35074 ft | 396 kts | 225° |
| 2026-05-04 17:37 | 29.85653 | -13.00464 | 35072 ft | 396 kts | 225° |
| 2026-05-04 17:38 | 29.81404 | -13.04508 | 35071 ft | 396 kts | 225° |
| 2026-05-04 17:38 | 29.77155 | -13.08548 | 35074 ft | 396 kts | 225° |
| 2026-05-04 17:39 | 29.70779 | -13.14602 | 35073 ft | 396 kts | 224° |
| 2026-05-04 17:39 | 29.66528 | -13.18632 | 35074 ft | 396 kts | 224° |
| 2026-05-04 17:40 | 29.62275 | -13.22660 | 35073 ft | 396 kts | 224° |
| 2026-05-04 17:40 | 29.58048 | -13.26659 | 35068 ft | 396 kts | 224° |
| 2026-05-04 17:41 | 29.53789 | -13.30683 | 35068 ft | 396 kts | 224° |
| 2026-05-04 17:41 | 29.49532 | -13.34702 | 35067 ft | 396 kts | 224° |
| 2026-05-04 17:42 | 29.45268 | -13.38722 | 35070 ft | 396 kts | 224° |
| 2026-05-04 17:42 | 29.41007 | -13.42734 | 35063 ft | 396 kts | 224° |
| 2026-05-04 17:43 | 29.36764 | -13.46726 | 35064 ft | 397 kts | 224° |
| 2026-05-04 17:43 | 29.32480 | -13.50751 | 35075 ft | 398 kts | 224° |
| 2026-05-04 17:44 | 29.28200 | -13.54768 | 35066 ft | 398 kts | 224° |
| 2026-05-04 17:44 | 29.23923 | -13.58777 | 35058 ft | 397 kts | 224° |
| 2026-05-04 17:45 | 29.19651 | -13.62778 | 35046 ft | 397 kts | 224° |
| 2026-05-04 17:45 | 29.15371 | -13.66782 | 35041 ft | 397 kts | 224° |
| 2026-05-04 17:46 | 29.11095 | -13.70777 | 35008 ft | 397 kts | 224° |
| 2026-05-04 17:46 | 29.06811 | -13.74777 | 35026 ft | 398 kts | 224° |
| 2026-05-04 17:47 | 29.02521 | -13.78776 | 35036 ft | 399 kts | 224° |
| 2026-05-04 17:47 | 28.98211 | -13.82791 | 35039 ft | 400 kts | 224° |
| 2026-05-04 17:48 | 28.96050 | -13.84803 | 34918 ft | 403 kts | 224° |
| 2026-05-04 17:48 | 28.93888 | -13.86812 | 34648 ft | 395 kts | 223° |
| 2026-05-04 17:48 | 28.92490 | -13.88108 | 34459 ft | 389 kts | 223° |
| 2026-05-04 17:48 | 28.90416 | -13.90030 | 34229 ft | 379 kts | 224° |
| 2026-05-04 17:49 | 28.88383 | -13.91915 | 33993 ft | 376 kts | 224° |
| 2026-05-04 17:49 | 28.86332 | -13.93823 | 33754 ft | 386 kts | 224° |
| 2026-05-04 17:49 | 28.84226 | -13.95785 | 33504 ft | 396 kts | 224° |
| 2026-05-04 17:49 | 28.82075 | -13.97785 | 33254 ft | 401 kts | 224° |
| 2026-05-04 17:50 | 28.79908 | -13.99794 | 32966 ft | 402 kts | 223° |
| 2026-05-04 17:50 | 28.77728 | -14.01812 | 32710 ft | 404 kts | 223° |
| 2026-05-04 17:50 | 28.75542 | -14.03834 | 32457 ft | 405 kts | 223° |
| 2026-05-04 17:50 | 28.73358 | -14.05853 | 32201 ft | 406 kts | 224° |
| 2026-05-04 17:51 | 28.71186 | -14.07860 | 31958 ft | 407 kts | 224° |
| 2026-05-04 17:51 | 28.68989 | -14.09889 | 31712 ft | 407 kts | 224° |
| 2026-05-04 17:51 | 28.66788 | -14.11922 | 31468 ft | 407 kts | 224° |
| 2026-05-04 17:51 | 28.64586 | -14.13954 | 31227 ft | 408 kts | 224° |
| 2026-05-04 17:52 | 28.62381 | -14.15988 | 30993 ft | 409 kts | 224° |
| 2026-05-04 17:52 | 28.60169 | -14.18028 | 30753 ft | 409 kts | 224° |
| 2026-05-04 17:52 | 28.57957 | -14.20066 | 30519 ft | 410 kts | 224° |
| 2026-05-04 17:52 | 28.55736 | -14.22112 | 30293 ft | 411 kts | 224° |
| 2026-05-04 17:53 | 28.53518 | -14.24154 | 30051 ft | 411 kts | 224° |
| 2026-05-04 17:53 | 28.51295 | -14.26199 | 29774 ft | 412 kts | 224° |
| 2026-05-04 17:53 | 28.49055 | -14.28259 | 29503 ft | 413 kts | 224° |
| 2026-05-04 17:53 | 28.46819 | -14.30314 | 29170 ft | 414 kts | 223° |
| 2026-05-04 17:54 | 28.44576 | -14.32374 | 28161 ft | 416 kts | 223° |
| 2026-05-04 17:54 | 28.42330 | -14.34436 | 27259 ft | 416 kts | 223° |
| 2026-05-04 17:54 | 28.40073 | -14.36507 | 26321 ft | 417 kts | 223° |
| 2026-05-04 17:54 | 28.37811 | -14.38580 | 25572 ft | 416 kts | 223° |
| 2026-05-04 17:55 | 28.35579 | -14.40624 | 24900 ft | 412 kts | 223° |
| 2026-05-04 17:55 | 28.33349 | -14.42664 | 24230 ft | 409 kts | 223° |
| 2026-05-04 17:55 | 28.31142 | -14.44684 | 23553 ft | 406 kts | 223° |
| 2026-05-04 17:55 | 28.28948 | -14.46691 | 22784 ft | 404 kts | 223° |
| 2026-05-04 17:56 | 28.26773 | -14.48679 | 22109 ft | 399 kts | 223° |
| 2026-05-04 17:56 | 28.24648 | -14.50620 | 21453 ft | 396 kts | 222° |
| 2026-05-04 17:56 | 28.22489 | -14.52593 | 20799 ft | 392 kts | 222° |
| 2026-05-04 17:56 | 28.20403 | -14.54497 | 20169 ft | 388 kts | 222° |
| 2026-05-04 17:57 | 28.18307 | -14.56410 | 19545 ft | 385 kts | 222° |
| 2026-05-04 17:57 | 28.16225 | -14.58310 | 18898 ft | 383 kts | 222° |
| 2026-05-04 17:57 | 28.14157 | -14.60195 | 18276 ft | 380 kts | 221° |
| 2026-05-04 17:57 | 28.12101 | -14.62068 | 17570 ft | 378 kts | 221° |
| 2026-05-04 17:58 | 28.10066 | -14.63922 | 16919 ft | 375 kts | 221° |
| 2026-05-04 17:58 | 28.08041 | -14.65764 | 16288 ft | 372 kts | 221° |
| 2026-05-04 17:58 | 28.06027 | -14.67596 | 15671 ft | 369 kts | 221° |
| 2026-05-04 17:58 | 28.04033 | -14.69409 | 15062 ft | 366 kts | 221° |
| 2026-05-04 17:59 | 28.02056 | -14.71206 | 14466 ft | 364 kts | 221° |
| 2026-05-04 17:59 | 28.00091 | -14.72991 | 13857 ft | 362 kts | 221° |
| 2026-05-04 17:59 | 27.96178 | -14.76544 | 12587 ft | 358 kts | 221° |
| 2026-05-04 18:00 | 27.94239 | -14.78303 | 11994 ft | 356 kts | 221° |
| 2026-05-04 18:00 | 27.92309 | -14.80052 | 11424 ft | 355 kts | 221° |
| 2026-05-04 18:00 | 27.90418 | -14.81764 | 11285 ft | 343 kts | 221° |
| 2026-05-04 18:00 | 27.88578 | -14.83430 | 11126 ft | 335 kts | 221° |
| 2026-05-04 18:01 | 27.86779 | -14.85058 | 10983 ft | 329 kts | 221° |
| 2026-05-04 18:01 | 27.85009 | -14.86661 | 10830 ft | 322 kts | 221° |
| 2026-05-04 18:01 | 27.83291 | -14.88216 | 10693 ft | 311 kts | 221° |
| 2026-05-04 18:02 | 27.80014 | -14.91179 | 10445 ft | 292 kts | 221° |
| 2026-05-04 18:02 | 27.78448 | -14.92595 | 10326 ft | 284 kts | 221° |
| 2026-05-04 18:02 | 27.76929 | -14.93968 | 10220 ft | 276 kts | 221° |
| 2026-05-04 18:02 | 27.75451 | -14.95304 | 10101 ft | 268 kts | 221° |
| 2026-05-04 18:03 | 27.74015 | -14.96600 | 9991 ft | 261 kts | 221° |
| 2026-05-04 18:03 | 27.72616 | -14.97863 | 9831 ft | 257 kts | 221° |
| 2026-05-04 18:03 | 27.71203 | -14.99138 | 9634 ft | 264 kts | 221° |
| 2026-05-04 18:03 | 27.69805 | -15.00543 | 9436 ft | 273 kts | 233° |
| 2026-05-04 18:04 | 27.68879 | -15.02427 | 9265 ft | 276 kts | 245° |
| 2026-05-04 18:04 | 27.68047 | -15.04390 | 9056 ft | 278 kts | 245° |
| 2026-05-04 18:04 | 27.66354 | -15.08315 | 8654 ft | 277 kts | 244° |
| 2026-05-04 18:05 | 27.65508 | -15.10256 | 8451 ft | 274 kts | 245° |
| 2026-05-04 18:05 | 27.64672 | -15.12170 | 8249 ft | 270 kts | 244° |
| 2026-05-04 18:05 | 27.63946 | -15.14105 | 8034 ft | 268 kts | 258° |
| 2026-05-04 18:05 | 27.63935 | -15.16188 | 7880 ft | 264 kts | 279° |
| 2026-05-04 18:06 | 27.65121 | -15.19991 | 7225 ft | 255 kts | 291° |
| 2026-05-04 18:06 | 27.65798 | -15.21834 | 6842 ft | 253 kts | 291° |
| 2026-05-04 18:06 | 27.66459 | -15.23667 | 6472 ft | 251 kts | 291° |
| 2026-05-04 18:07 | 27.67107 | -15.25489 | 6046 ft | 251 kts | 291° |
| 2026-05-04 18:07 | 27.67751 | -15.27312 | 5648 ft | 249 kts | 291° |
| 2026-05-04 18:07 | 27.68383 | -15.29108 | 5383 ft | 244 kts | 291° |
| 2026-05-04 18:07 | 27.69006 | -15.30887 | 5132 ft | 244 kts | 291° |
| 2026-05-04 18:08 | 27.69628 | -15.32666 | 4885 ft | 243 kts | 292° |
| 2026-05-04 18:08 | 27.70241 | -15.34417 | 4778 ft | 237 kts | 292° |
| 2026-05-04 18:08 | 27.70836 | -15.36119 | 4603 ft | 233 kts | 292° |
| 2026-05-04 18:08 | 27.71430 | -15.37823 | 4363 ft | 233 kts | 292° |
| 2026-05-04 18:09 | 27.72603 | -15.41183 | 3891 ft | 231 kts | 292° |
| 2026-05-04 18:09 | 27.74622 | -15.43722 | 3448 ft | 222 kts | 337° |
| 2026-05-04 18:10 | 27.76023 | -15.44452 | 3200 ft | 222 kts | 337° |
| 2026-05-04 18:10 | 27.77432 | -15.45160 | 2967 ft | 220 kts | 346° |
| 2026-05-04 18:10 | 27.78896 | -15.45126 | 2724 ft | 211 kts | 24° |
| 2026-05-04 18:10 | 27.80171 | -15.44385 | 2522 ft | 203 kts | 22° |
| 2026-05-04 18:11 | 27.81504 | -15.43881 | 2292 ft | 201 kts | 20° |
| 2026-05-04 18:11 | 27.82784 | -15.43302 | 2028 ft | 197 kts | 23° |
| 2026-05-04 18:11 | 27.84015 | -15.42737 | 1768 ft | 185 kts | 22° |
| 2026-05-04 18:11 | 27.85171 | -15.42222 | 1517 ft | 172 kts | 22° |
| 2026-05-04 18:12 | 27.86235 | -15.41750 | 1314 ft | 157 kts | 21° |
| 2026-05-04 18:12 | 27.87204 | -15.41320 | 1109 ft | 145 kts | 21° |
| 2026-05-04 18:12 | 27.88140 | -15.40904 | 941 ft | 144 kts | 22° |
| 2026-05-04 18:12 | 27.89085 | -15.40482 | 754 ft | 148 kts | 21° |
| 2026-05-04 18:13 | 27.90055 | -15.40054 | 525 ft | 149 kts | 22° |
| 2026-05-04 18:13 | 27.90984 | -15.39639 | 326 ft | 143 kts | 23° |
| 2026-05-04 18:13 | 27.92753 | -15.38851 | 67 ft | 121 kts | 21° |
| 2026-05-04 18:14 | 27.93427 | -15.38553 | 56 ft | 87 kts | 21° |
| 2026-05-04 18:14 | 27.93795 | -15.38425 | 61 ft | 32 kts | 2° |
| 2026-05-04 18:14 | 27.93984 | -15.38449 | 70 ft | 8 kts | 348° |
| 2026-05-04 18:15 | 27.93987 | -15.38450 | 70 ft | 0 kts | 347° |
| 2026-05-04 18:15 | 27.93995 | -15.38452 | 70 ft | 3 kts | 346° |
| 2026-05-04 18:15 | 27.94026 | -15.38470 | 67 ft | 7 kts | 317° |
| 2026-05-04 18:16 | 27.94058 | -15.38532 | 73 ft | 10 kts | 291° |
| 2026-05-04 18:16 | 27.94074 | -15.38609 | 74 ft | 10 kts | 253° |
| 2026-05-04 18:16 | 27.94016 | -15.38650 | 81 ft | 10 kts | 201° |
| 2026-05-04 18:17 | 27.93810 | -15.38741 | 83 ft | 23 kts | 201° |
| 2026-05-04 18:17 | 27.93648 | -15.38812 | 87 ft | 26 kts | 202° |
| 2026-05-04 18:17 | 27.93363 | -15.38931 | 85 ft | 6 kts | 203° |
| 2026-05-04 18:18 | 27.93362 | -15.38974 | 82 ft | 6 kts | 291° |
| 2026-05-04 18:18 | 27.93377 | -15.39017 | 84 ft | 4 kts | 291° |
| 2026-05-04 18:18 | 27.93380 | -15.39026 | 86 ft | 0 kts | 291° |